createdAt,value
2022-11-08T00:00:02.595Z,67.48
2022-11-08T00:02:33.382Z,68.48
2022-11-08T00:05:18.645Z,68.24
2022-11-08T00:08:04.206Z,68.29
2022-11-08T00:10:49.569Z,68.37
2022-11-08T00:13:34.966Z,68.22
2022-11-08T00:16:04.449Z,68.89
2022-11-08T00:18:32.308Z,68.98
2022-11-08T00:21:02.395Z,68.76
2022-11-08T00:23:30.376Z,68.96
2022-11-08T00:25:58.264Z,69.41
2022-11-08T00:28:26.078Z,69.10
2022-11-08T00:30:53.907Z,69.05
2022-11-08T00:33:23.062Z,69.17
2022-11-08T00:35:51.003Z,69.96
2022-11-08T00:38:19.166Z,70.25
2022-11-08T00:40:47.248Z,69.58
2022-11-08T00:43:15.046Z,69.89
2022-11-08T00:45:42.859Z,69.97
2022-11-08T00:48:10.689Z,69.97
2022-11-08T00:50:41.425Z,69.63
2022-11-08T00:53:09.284Z,69.98
2022-11-08T00:55:37.155Z,70.26
2022-11-08T00:58:05.185Z,70.27
2022-11-08T01:00:33.090Z,69.48
2022-11-08T01:03:14.812Z,69.80
2022-11-08T01:05:44.091Z,70.11
2022-11-08T01:08:13.067Z,69.98
2022-11-08T01:10:42.192Z,70.02
2022-11-08T01:13:10.332Z,70.29
2022-11-08T01:15:40.672Z,70.37
2022-11-08T01:18:10.172Z,71.24
2022-11-08T01:20:39.300Z,70.37
2022-11-08T01:23:09.485Z,70.83
2022-11-08T01:25:38.406Z,70.97
2022-11-08T01:28:06.799Z,71.21
2022-11-08T01:30:37.486Z,71.09
2022-11-08T01:33:06.038Z,71.09
2022-11-08T01:35:35.356Z,70.85
2022-11-08T01:38:04.425Z,71.82
2022-11-08T01:40:34.422Z,71.33
2022-11-08T01:43:35.331Z,70.79
2022-11-08T01:46:34.068Z,71.29
2022-11-08T01:49:43.395Z,71.31
2022-11-08T01:52:25.856Z,71.53
2022-11-08T01:55:02.460Z,71.87
2022-11-08T01:57:37.474Z,71.61
2022-11-08T02:00:10.232Z,71.28
2022-11-08T02:02:39.902Z,70.89
2022-11-08T02:05:24.691Z,70.91
2022-11-08T02:08:00.049Z,70.30
2022-11-08T02:10:32.810Z,70.15
2022-11-08T02:13:05.016Z,70.03
2022-11-08T02:15:33.813Z,70.39
2022-11-08T02:18:03.213Z,70.61
2022-11-08T02:20:31.773Z,71.04
2022-11-08T02:23:06.187Z,70.66
2022-11-08T02:25:35.497Z,71.08
2022-11-08T02:28:03.371Z,71.17
2022-11-08T02:30:34.294Z,71.36
2022-11-08T02:33:15.712Z,71.69
2022-11-08T02:35:45.722Z,71.10
2022-11-08T02:38:13.781Z,71.53
2022-11-08T02:40:50.859Z,71.92
2022-11-08T02:43:19.073Z,72.17
2022-11-08T02:45:47.177Z,71.72
2022-11-08T02:48:17.439Z,71.41
2022-11-08T02:50:45.776Z,72.27
2022-11-08T02:53:14.166Z,72.22
2022-11-08T02:55:42.358Z,72.84
2022-11-08T02:58:12.452Z,72.43
2022-11-08T03:00:40.787Z,73.13
2022-11-08T03:03:08.636Z,72.40
2022-11-08T03:05:36.588Z,72.98
2022-11-08T03:08:04.683Z,73.18
2022-11-08T03:10:32.521Z,72.45
2022-11-08T03:13:02.029Z,73.27
2022-11-08T03:15:31.867Z,73.38
2022-11-08T03:18:02.236Z,72.97
2022-11-08T03:20:33.194Z,73.48
2022-11-08T03:23:02.838Z,72.64
2022-11-08T03:25:31.070Z,72.43
2022-11-08T03:28:02.972Z,72.45
2022-11-08T03:30:32.217Z,71.93
2022-11-08T03:33:00.299Z,72.20
2022-11-08T03:35:28.232Z,72.17
2022-11-08T03:37:57.657Z,72.30
2022-11-08T03:40:26.868Z,72.35
2022-11-08T03:42:56.802Z,72.12
2022-11-08T03:45:24.657Z,72.13
2022-11-08T03:47:53.934Z,72.29
2022-11-08T03:50:21.780Z,72.89
2022-11-08T03:52:51.606Z,73.02
2022-11-08T03:55:20.909Z,72.95
2022-11-08T03:57:50.117Z,73.45
2022-11-08T04:00:20.866Z,73.78
2022-11-08T04:02:48.936Z,73.69
2022-11-08T04:05:18.997Z,73.35
2022-11-08T04:07:46.824Z,73.13
2022-11-08T04:10:14.952Z,74.03
2022-11-08T04:13:01.336Z,74.01
2022-11-08T04:15:30.519Z,74.24
2022-11-08T04:18:17.512Z,74.29
2022-11-08T04:21:06.266Z,74.18
2022-11-08T04:23:35.881Z,74.47
2022-11-08T04:26:06.010Z,73.87
2022-11-08T04:28:37.628Z,73.54
2022-11-08T04:31:08.040Z,74.15
2022-11-08T04:33:36.066Z,74.92
2022-11-08T04:36:07.935Z,75.33
2022-11-08T04:38:36.574Z,75.65
2022-11-08T04:41:06.220Z,74.83
2022-11-08T04:43:35.300Z,74.69
2022-11-08T04:46:05.168Z,74.84
2022-11-08T04:48:33.395Z,75.57
2022-11-08T04:51:07.867Z,75.23
2022-11-08T04:53:35.861Z,75.57
2022-11-08T04:56:05.655Z,75.76
2022-11-08T04:58:38.898Z,75.61
2022-11-08T05:01:08.529Z,75.88
2022-11-08T05:03:37.148Z,75.52
2022-11-08T05:06:11.155Z,75.26
2022-11-08T05:08:39.120Z,75.58
2022-11-08T05:11:09.135Z,75.67
2022-11-08T05:13:37.806Z,76.01
2022-11-08T05:16:08.070Z,76.42
2022-11-08T05:18:36.281Z,76.44
2022-11-08T05:21:21.973Z,76.47
2022-11-08T05:23:52.053Z,76.77
2022-11-08T05:26:21.069Z,75.46
2022-11-08T05:28:49.395Z,75.75
2022-11-08T05:31:17.422Z,75.65
2022-11-08T05:33:45.629Z,74.31
2022-11-08T05:36:16.427Z,74.92
2022-11-08T05:38:44.474Z,75.93
2022-11-08T05:41:16.173Z,75.53
2022-11-08T05:43:47.397Z,75.10
2022-11-08T05:46:16.057Z,76.07
2022-11-08T05:48:44.723Z,75.46
2022-11-08T05:51:13.027Z,76.04
2022-11-08T05:53:41.419Z,75.36
2022-11-08T05:56:10.093Z,76.27
2022-11-08T05:58:39.277Z,75.92
2022-11-08T06:01:09.468Z,76.01
2022-11-08T06:03:37.703Z,75.84
2022-11-08T06:06:08.266Z,76.09
2022-11-08T06:08:36.670Z,76.25
2022-11-08T06:11:04.959Z,76.72
2022-11-08T06:13:34.243Z,76.49
2022-11-08T06:16:05.560Z,76.86
2022-11-08T06:18:33.942Z,76.70
2022-11-08T06:21:02.742Z,76.27
2022-11-08T06:23:31.496Z,76.69
2022-11-08T06:26:00.224Z,76.58
2022-11-08T06:28:28.570Z,76.92
2022-11-08T06:30:58.927Z,77.36
2022-11-08T06:33:28.408Z,76.35
2022-11-08T06:35:56.428Z,77.23
2022-11-08T06:38:24.367Z,76.65
2022-11-08T06:40:55.619Z,77.04
2022-11-08T06:43:23.725Z,76.74
2022-11-08T06:45:52.067Z,76.59
2022-11-08T06:48:19.954Z,76.92
2022-11-08T06:50:49.292Z,76.07
2022-11-08T06:53:17.547Z,76.13
2022-11-08T06:55:45.593Z,76.95
2022-11-08T06:58:13.493Z,76.43
2022-11-08T07:00:41.307Z,76.54
2022-11-08T07:03:10.547Z,76.68
2022-11-08T07:05:38.400Z,76.13
2022-11-08T07:08:07.773Z,76.38
2022-11-08T07:10:36.435Z,75.58
2022-11-08T07:13:06.275Z,76.92
2022-11-08T07:15:36.587Z,75.96
2022-11-08T07:18:09.314Z,75.74
2022-11-08T07:20:38.110Z,76.53
2022-11-08T07:23:07.734Z,76.49
2022-11-08T07:25:36.131Z,77.53
2022-11-08T07:28:06.222Z,76.29
2022-11-08T07:30:35.150Z,76.69
2022-11-08T07:33:03.421Z,76.36
2022-11-08T07:35:31.539Z,76.30
2022-11-08T07:37:59.382Z,77.03
2022-11-08T07:40:28.839Z,75.99
2022-11-08T07:43:13.303Z,75.98
2022-11-08T07:45:42.115Z,76.11
2022-11-08T07:48:13.253Z,75.67
2022-11-08T07:50:42.830Z,75.78
2022-11-08T07:53:11.307Z,75.83
2022-11-08T07:55:41.447Z,75.69
2022-11-08T07:58:11.660Z,75.93
2022-11-08T08:00:41.031Z,75.29
2022-11-08T08:03:10.985Z,75.65
2022-11-08T08:05:40.680Z,76.32
2022-11-08T08:08:09.607Z,75.28
2022-11-08T08:10:37.981Z,74.86
2022-11-08T08:13:07.605Z,74.15
2022-11-08T08:15:35.890Z,73.80
2022-11-08T08:18:05.752Z,74.67
2022-11-08T08:20:34.399Z,75.79
2022-11-08T08:23:02.646Z,74.35
2022-11-08T08:25:31.500Z,74.06
2022-11-08T08:28:01.708Z,73.82
2022-11-08T08:30:32.042Z,73.42
2022-11-08T08:33:27.509Z,73.52
2022-11-08T08:35:55.072Z,73.33
2022-11-08T08:38:23.190Z,72.82
2022-11-08T08:40:52.265Z,73.24
2022-11-08T08:43:20.855Z,72.17
2022-11-08T08:45:50.521Z,72.85
2022-11-08T08:48:18.498Z,72.21
2022-11-08T08:50:46.457Z,70.94
2022-11-08T08:53:14.508Z,72.31
2022-11-08T08:55:42.894Z,71.69
2022-11-08T08:58:11.187Z,70.73
2022-11-08T09:03:28.573Z,70.01
2022-11-08T09:05:58.891Z,69.17
2022-11-08T09:08:27.138Z,69.76
2022-11-08T09:10:55.692Z,69.99
2022-11-08T09:13:24.542Z,68.96
2022-11-08T09:15:52.554Z,68.30
2022-11-08T09:18:20.619Z,67.85
2022-11-08T09:20:49.966Z,66.51
2022-11-08T09:23:18.556Z,65.71
2022-11-08T09:25:46.709Z,64.88
2022-11-08T09:28:14.544Z,64.90
2022-11-08T09:30:42.465Z,64.33
2022-11-08T09:33:10.389Z,64.23
2022-11-08T09:35:38.269Z,63.39
2022-11-08T09:38:07.494Z,62.95
2022-11-08T09:40:40.990Z,62.69
2022-11-08T09:43:30.108Z,61.82
2022-11-08T09:45:58.163Z,61.34
2022-11-08T09:48:30.695Z,62.14
2022-11-08T09:51:02.453Z,61.78
2022-11-08T09:53:38.941Z,61.10
2022-11-08T09:56:14.496Z,61.76
2022-11-08T09:58:48.492Z,60.49
2022-11-08T10:01:16.678Z,57.95
2022-11-08T10:03:48.903Z,57.72
2022-11-08T10:06:47.612Z,59.27
2022-11-08T10:09:31.265Z,58.14
2022-11-08T10:12:09.924Z,57.54
2022-11-08T10:14:53.546Z,57.28
2022-11-08T10:17:55.136Z,59.53
2022-11-08T10:20:34.444Z,58.60
2022-11-08T10:23:15.325Z,59.67
2022-11-08T10:25:48.890Z,58.91
2022-11-08T10:28:18.797Z,58.75
2022-11-08T10:30:50.299Z,58.86
2022-11-08T10:33:21.689Z,58.44
2022-11-08T10:36:01.823Z,57.71
2022-11-08T10:38:37.308Z,55.79
2022-11-08T10:41:18.778Z,55.94
2022-11-08T10:43:54.547Z,56.89
2022-11-08T10:46:37.179Z,55.71
2022-11-08T10:49:13.013Z,56.14
2022-11-08T10:51:40.937Z,55.21
2022-11-08T10:54:08.833Z,54.54
2022-11-08T10:56:55.825Z,56.19
2022-11-08T10:59:31.320Z,55.59
2022-11-08T11:01:59.680Z,55.69
2022-11-08T11:04:29.550Z,56.17
2022-11-08T11:07:02.971Z,55.89
2022-11-08T11:09:31.066Z,55.47
2022-11-08T11:12:02.523Z,54.39
2022-11-08T11:14:30.415Z,53.63
2022-11-08T11:17:01.567Z,52.51
2022-11-08T11:19:30.941Z,53.29
2022-11-08T11:22:03.735Z,53.84
2022-11-08T11:24:32.797Z,52.01
2022-11-08T11:27:05.329Z,52.66
2022-11-08T11:29:34.644Z,52.41
2022-11-08T11:32:24.401Z,51.27
2022-11-08T11:34:56.921Z,50.61
2022-11-08T11:37:32.467Z,49.46
2022-11-08T11:40:08.298Z,49.20
2022-11-08T11:42:47.015Z,49.77
2022-11-08T11:45:20.755Z,50.15
2022-11-08T11:47:53.274Z,50.28
2022-11-08T11:50:30.708Z,49.23
2022-11-08T11:53:00.251Z,49.43
2022-11-08T11:55:34.201Z,49.70
2022-11-08T11:58:15.556Z,49.73
2022-11-08T12:00:52.155Z,50.34
2022-11-08T12:03:37.159Z,49.58
2022-11-08T12:06:20.529Z,48.80
2022-11-08T12:09:05.952Z,48.63
2022-11-08T12:11:53.218Z,48.54
2022-11-08T12:14:42.347Z,48.63
2022-11-08T12:17:32.178Z,49.88
2022-11-08T12:20:14.199Z,50.61
2022-11-08T12:22:56.890Z,50.87
2022-11-08T12:25:31.987Z,50.73
2022-11-08T12:28:13.177Z,50.64
2022-11-08T12:30:52.267Z,49.83
2022-11-08T12:33:34.268Z,50.56
2022-11-08T12:36:15.583Z,50.58
2022-11-08T12:38:52.019Z,51.55
2022-11-08T12:41:27.180Z,51.00
2022-11-08T12:44:15.768Z,51.55
2022-11-08T12:47:01.555Z,50.41
2022-11-08T12:49:37.123Z,51.22
2022-11-08T12:52:22.525Z,50.94
2022-11-08T12:54:54.603Z,51.19
2022-11-08T12:57:28.077Z,51.19
2022-11-08T13:00:05.065Z,51.25
2022-11-08T13:02:38.432Z,52.64
2022-11-08T13:05:09.723Z,50.77
2022-11-08T13:07:46.397Z,52.28
2022-11-08T13:10:24.384Z,51.41
2022-11-08T13:13:08.646Z,51.33
2022-11-08T13:15:36.790Z,51.96
2022-11-08T13:18:33.592Z,51.99
2022-11-08T13:21:01.569Z,52.53
2022-11-08T13:23:31.245Z,52.27
2022-11-08T13:26:19.435Z,51.52
2022-11-08T13:28:48.313Z,51.72
2022-11-08T13:31:29.092Z,51.53
2022-11-08T13:34:16.710Z,51.85
2022-11-08T13:36:53.555Z,52.20
2022-11-08T13:39:48.948Z,52.06
2022-11-08T13:42:37.906Z,51.59
2022-11-08T13:45:26.327Z,51.40
2022-11-08T13:48:02.491Z,52.43
2022-11-08T13:50:49.740Z,52.94
2022-11-08T13:53:45.958Z,53.41
2022-11-08T13:56:50.660Z,53.47
2022-11-08T13:59:54.818Z,53.16
2022-11-08T14:02:32.959Z,53.30
2022-11-08T14:05:28.812Z,53.97
2022-11-08T14:08:28.951Z,53.74
2022-11-08T14:11:26.887Z,54.36
2022-11-08T14:14:38.438Z,54.52
2022-11-08T14:17:30.858Z,54.91
2022-11-08T14:20:16.259Z,55.98
2022-11-08T14:22:50.144Z,55.59
2022-11-08T14:25:25.658Z,55.48
2022-11-08T14:27:53.537Z,55.54
2022-11-08T14:30:23.347Z,56.17
2022-11-08T14:33:06.753Z,56.33
2022-11-08T14:35:34.816Z,55.63
2022-11-08T14:38:02.709Z,56.45
2022-11-08T14:40:32.087Z,55.85
2022-11-08T14:43:00.408Z,55.71
2022-11-08T14:45:29.981Z,55.86
2022-11-08T14:48:03.953Z,56.54
2022-11-08T14:50:34.240Z,56.27
2022-11-08T14:53:24.475Z,56.61
2022-11-08T14:56:03.051Z,57.22
2022-11-08T14:58:31.644Z,58.00
2022-11-08T15:01:01.156Z,57.32
2022-11-08T15:03:32.372Z,57.73
2022-11-08T15:06:02.885Z,57.13
2022-11-08T15:08:33.409Z,56.97
2022-11-08T15:11:06.038Z,58.05
2022-11-08T15:13:39.971Z,58.14
2022-11-08T15:16:09.281Z,58.45
2022-11-08T15:18:38.573Z,58.59
2022-11-08T15:21:08.646Z,58.99
2022-11-08T15:23:44.398Z,58.90
2022-11-08T15:26:22.705Z,59.19
2022-11-08T15:29:02.091Z,58.88
2022-11-08T15:31:33.444Z,59.24
2022-11-08T15:34:01.528Z,58.49
2022-11-08T15:36:34.231Z,58.03
2022-11-08T15:39:03.090Z,58.49
2022-11-08T15:41:39.172Z,58.84
2022-11-08T15:44:15.194Z,58.70
2022-11-08T15:46:43.924Z,59.37
2022-11-08T15:49:19.089Z,58.49
2022-11-08T15:51:47.221Z,59.34
2022-11-08T15:54:15.518Z,59.79
2022-11-08T15:56:46.026Z,59.50
2022-11-08T15:59:21.036Z,59.83
2022-11-08T16:01:55.548Z,59.45
2022-11-08T16:04:23.974Z,60.47
2022-11-08T16:06:52.213Z,60.20
2022-11-08T16:09:20.776Z,59.66
2022-11-08T16:11:51.079Z,60.53
2022-11-08T16:14:21.315Z,60.16
2022-11-08T16:16:49.249Z,60.35
2022-11-08T16:19:20.471Z,60.19
2022-11-08T16:21:48.397Z,60.23
2022-11-08T16:24:16.403Z,60.14
2022-11-08T16:26:45.866Z,59.96
2022-11-08T16:29:23.719Z,60.20
2022-11-08T16:31:52.558Z,60.69
2022-11-08T16:34:20.771Z,60.50
2022-11-08T16:36:50.220Z,60.66
2022-11-08T16:39:20.319Z,60.95
2022-11-08T16:41:48.620Z,60.83
2022-11-08T16:44:16.758Z,60.26
2022-11-08T16:46:46.303Z,60.37
2022-11-08T16:49:21.685Z,60.36
2022-11-08T16:51:50.345Z,59.99
2022-11-08T16:54:20.502Z,60.36
2022-11-08T16:56:48.656Z,60.87
2022-11-08T16:59:16.489Z,61.38
2022-11-08T17:01:45.907Z,60.93
2022-11-08T17:04:13.829Z,61.77
2022-11-08T17:06:41.736Z,62.29
2022-11-08T17:09:09.743Z,61.65
2022-11-08T17:11:39.773Z,61.67
2022-11-08T17:14:08.128Z,61.78
2022-11-08T17:16:36.021Z,61.23
2022-11-08T17:19:06.210Z,61.60
2022-11-08T17:21:49.591Z,61.20
2022-11-08T17:24:21.925Z,61.14
2022-11-08T17:26:50.444Z,61.15
2022-11-08T17:29:18.294Z,61.44
2022-11-08T17:31:46.124Z,61.80
2022-11-08T17:34:15.344Z,61.25
2022-11-08T17:36:43.218Z,61.84
2022-11-08T17:39:14.041Z,61.84
2022-11-08T17:41:42.066Z,61.60
2022-11-08T17:44:09.887Z,60.87
2022-11-08T17:46:37.765Z,61.42
2022-11-08T17:49:05.616Z,61.59
2022-11-08T17:51:34.826Z,60.96
2022-11-08T17:54:02.703Z,60.93
2022-11-08T17:56:30.912Z,62.00
2022-11-08T17:58:58.783Z,60.97
2022-11-08T18:01:26.767Z,61.88
2022-11-08T18:03:54.665Z,61.39
2022-11-08T18:06:22.496Z,61.75
2022-11-08T18:08:51.702Z,61.02
2022-11-08T18:11:20.042Z,60.95
2022-11-08T18:13:47.931Z,60.88
2022-11-08T18:16:18.619Z,60.82
2022-11-08T18:18:47.549Z,61.27
2022-11-08T18:21:16.841Z,60.44
2022-11-08T18:23:46.321Z,60.50
2022-11-08T18:26:16.565Z,60.75
2022-11-08T18:28:45.360Z,60.25
2022-11-08T18:31:15.015Z,59.70
2022-11-08T18:33:43.743Z,59.25
2022-11-08T18:36:13.530Z,60.10
2022-11-08T18:38:44.465Z,60.84
2022-11-08T18:41:13.732Z,60.07
2022-11-08T18:43:43.269Z,59.77
2022-11-08T18:46:15.014Z,60.20
2022-11-08T18:48:42.951Z,59.47
2022-11-08T18:51:12.706Z,59.53
2022-11-08T18:53:41.079Z,59.30
2022-11-08T18:56:09.975Z,58.84
2022-11-08T18:58:37.888Z,59.61
2022-11-08T19:01:07.370Z,58.74
2022-11-08T19:03:35.632Z,59.20
2022-11-08T19:06:03.740Z,59.03
2022-11-08T19:08:32.564Z,58.70
2022-11-08T19:11:02.958Z,58.74
2022-11-08T19:13:32.784Z,58.15
2022-11-08T19:16:02.403Z,58.77
2022-11-08T19:18:32.508Z,59.29
2022-11-08T19:21:03.142Z,59.67
2022-11-08T19:23:31.246Z,58.97
2022-11-08T19:26:01.228Z,59.10
2022-11-08T19:28:32.785Z,58.26
2022-11-08T19:31:01.252Z,58.67
2022-11-08T19:33:32.209Z,58.75
2022-11-08T19:36:05.289Z,58.92
2022-11-08T19:38:34.312Z,58.53
2022-11-08T19:41:03.453Z,58.36
2022-11-08T19:43:31.725Z,57.77
2022-11-08T19:46:03.428Z,58.64
2022-11-08T19:48:36.844Z,58.19
2022-11-08T19:51:06.772Z,57.92
2022-11-08T19:53:35.572Z,57.86
2022-11-08T19:56:05.485Z,58.21
2022-11-08T19:58:34.536Z,57.40
2022-11-08T20:01:08.437Z,57.39
2022-11-08T20:03:38.082Z,56.97
2022-11-08T20:06:07.607Z,56.84
2022-11-08T20:08:35.597Z,56.13
2022-11-08T20:11:11.824Z,56.26
2022-11-08T20:13:39.765Z,56.79
2022-11-08T20:16:12.490Z,56.49
2022-11-08T20:18:42.026Z,56.79
2022-11-08T20:21:11.462Z,56.85
2022-11-08T20:23:39.760Z,56.45
2022-11-08T20:26:09.009Z,56.02
2022-11-08T20:28:41.771Z,56.21
2022-11-08T20:31:13.849Z,56.29
2022-11-08T20:33:43.984Z,56.75
2022-11-08T20:36:14.216Z,56.65
2022-11-08T20:38:42.513Z,57.44
2022-11-08T20:41:13.857Z,56.93
2022-11-08T20:43:42.482Z,57.56
2022-11-08T20:46:13.444Z,56.96
2022-11-08T20:48:42.971Z,56.12
2022-11-08T20:51:14.601Z,56.78
2022-11-08T20:53:42.932Z,56.98
2022-11-08T20:56:14.588Z,56.54
2022-11-08T20:58:44.009Z,56.20
2022-11-08T21:01:15.284Z,56.04
2022-11-08T21:03:44.654Z,56.43
2022-11-08T21:06:16.012Z,57.56
2022-11-08T21:09:03.244Z,57.13
2022-11-08T21:11:32.497Z,55.67
2022-11-08T21:14:00.311Z,56.18
2022-11-08T21:16:31.873Z,55.53
2022-11-08T21:19:06.561Z,55.54
2022-11-08T21:21:35.875Z,55.73
2022-11-08T21:24:03.763Z,55.80
2022-11-08T21:26:36.211Z,56.10
2022-11-08T21:29:04.425Z,55.29
2022-11-08T21:31:32.475Z,56.30
2022-11-08T21:34:00.978Z,55.12
2022-11-08T21:36:29.186Z,55.50
2022-11-08T21:38:58.562Z,55.38
2022-11-08T21:41:26.410Z,54.82
2022-11-08T21:43:54.332Z,56.31
2022-11-08T21:46:23.677Z,55.54
2022-11-08T21:48:54.995Z,55.61
2022-11-08T21:51:23.250Z,56.58
2022-11-08T21:53:54.798Z,55.53
2022-11-08T21:56:26.469Z,55.63
2022-11-08T21:58:54.573Z,55.47
2022-11-08T22:01:27.212Z,55.25
2022-11-08T22:03:58.078Z,55.27
2022-11-08T22:06:26.156Z,55.58
2022-11-08T22:08:54.098Z,55.81
2022-11-08T22:11:22.086Z,55.44
2022-11-08T22:13:51.357Z,55.80
2022-11-08T22:16:19.207Z,56.24
2022-11-08T22:21:43.262Z,55.29
2022-11-08T22:24:13.553Z,55.22
2022-11-08T22:26:42.394Z,55.73
2022-11-08T22:29:11.666Z,55.46
2022-11-08T22:31:40.141Z,55.87
2022-11-08T22:34:09.090Z,55.65
2022-11-08T22:36:44.102Z,56.13
2022-11-08T22:39:14.052Z,56.19
2022-11-08T22:41:42.371Z,57.23
2022-11-08T22:44:12.743Z,56.01
2022-11-08T22:46:41.623Z,55.52
2022-11-08T22:49:09.713Z,56.08
2022-11-08T22:51:37.838Z,55.26
2022-11-08T22:54:06.076Z,56.07
2022-11-08T22:56:34.335Z,55.35
2022-11-08T22:59:02.444Z,56.21
2022-11-08T23:01:31.750Z,56.23
2022-11-08T23:03:59.624Z,55.88
2022-11-08T23:06:27.536Z,55.51
2022-11-08T23:08:55.502Z,55.68
2022-11-08T23:11:40.976Z,56.54
2022-11-08T23:14:31.095Z,55.64
2022-11-08T23:17:05.052Z,56.26
2022-11-08T23:19:50.473Z,55.76
2022-11-08T23:22:36.865Z,55.86
2022-11-08T23:25:05.165Z,55.30
2022-11-08T23:27:50.765Z,56.84
2022-11-08T23:30:36.772Z,57.24
2022-11-08T23:33:06.884Z,55.56
2022-11-08T23:35:34.961Z,55.66
2022-11-08T23:38:02.964Z,56.11
2022-11-08T23:40:48.075Z,56.32
2022-11-08T23:43:35.467Z,57.10
2022-11-08T23:46:07.359Z,56.51
2022-11-08T23:48:37.025Z,56.96
2022-11-08T23:51:05.614Z,56.75
2022-11-08T23:53:36.754Z,57.02
2022-11-08T23:56:05.487Z,56.64
2022-11-08T23:58:34.071Z,56.52
